Huvudsida
METAR-TAF:

METAR-TAF

Flygplatser :

Åre Östersund Airport

Östersund-Frösön, Sverige

latitud: 63-11N, longitud: 014-30E, höjd: 376 m

Aktuellt väderrapport

Denna rapport gjordes för 19 minuter sedan, klockan 15:50 UTC
Vind 18 kt från väst/nordväst
Temperatur 12°C
Fuktighet 71%
Tryck 1013 hPa
Sikt 10 km eller mer

METAR: ESNZ 071550Z AUTO 30018KT 9999 BKN029/// OVC049/// 12/07 Q1013

Tid: 18:09 (16:09 UTC)

Väderprognos

Denna rapport gjordes för 1 timme och 39 minuter sedan, klockan 14:30 UTC
Prognos gäller från 07 kl. 15 UTC till 07 kl. 17 UTC
Vind 18 kt från väst
Sikt 10 km eller mer
Spridda moln på en höjd av 3000 ft
Sannolikhet 40%
från 07 kl. 15 UTC till 07 kl. 17 UTC
Brutna moln på en höjd av 3000 ft, Cumulonimbus.

TAF: ESNZ 071430Z 0715/0717 28018KT 9999 SCT030 PROB40 0715/0717 BKN030CB

Aktuella väderrapporter och prognoser från 4000 flygplatser (METAR- och TAF-rapporter).

De tillgängliga stationerna syns som gula och röda prickar på kartan.

För musen över prickarna för att se namnen på stationerna.

Klicka sedan för att få väderrapporter och prognoser.

För att ändra kartan: Klicka på de gröna knapparna med ett svart kors på för att zooma in; den gröna knappen med ett streck på för att zooma ut; eller på de gröna pilarna för angränsande kartor.


METAR-TAF: